Huvudsida
METAR-TAF:

METAR-TAF

Flygplatser :

Enontekis flygplats

Enontekis, Finland

latitud: 68-21-52N, longitud: 023-25-39E, höjd: 308 m

Aktuellt väderrapport

Denna rapport gjordes för 20 minuter sedan, klockan 04:50 UTC
Vind 11 kt från väst, varierande mellan sydväst och väst/nordväst
Temperatur 5°C
Fuktighet 75%
Tryck 1015 hPa
Sikt 10 km eller mer
Brutna moln på en höjd av 4500 ft
Mulet på en höjd av 7100 ft

METAR: EFET 170450Z AUTO 27011KT 230V300 9999 BKN045 OVC071 05/01 Q1015

Tid: 07:10 (05:10 UTC)


TAF: saknas

Aktuella väderrapporter och prognoser från 4000 flygplatser (METAR- och TAF-rapporter).

De tillgängliga stationerna syns som gula och röda prickar på kartan.

För musen över prickarna för att se namnen på stationerna.

Klicka sedan för att få väderrapporter och prognoser.

För att ändra kartan: Klicka på de gröna knapparna med ett svart kors på för att zooma in; den gröna knappen med ett streck på för att zooma ut; eller på de gröna pilarna för angränsande kartor.


METAR-TAF: